createdAt,value
2023-04-09T00:02:31.391Z,60.75
2023-04-09T00:05:15.491Z,58.50
2023-04-09T00:07:58.168Z,45.90
2023-04-09T00:10:40.907Z,43.78
2023-04-09T00:13:35.553Z,43.95
2023-04-09T00:16:20.922Z,38.75
2023-04-09T00:19:03.581Z,41.80
2023-04-09T00:21:48.300Z,41.05
2023-04-09T00:24:30.939Z,36.78
2023-04-09T00:27:13.577Z,53.58
2023-04-09T00:29:56.451Z,48.63
2023-04-09T00:32:39.186Z,39.25
2023-04-09T00:35:21.926Z,31.02
2023-04-09T00:38:05.887Z,48.70
2023-04-09T00:40:49.944Z,50.97
2023-04-09T00:43:32.578Z,37.17
2023-04-09T00:46:16.193Z,35.17
2023-04-09T00:48:58.964Z,58.20
2023-04-09T00:51:41.557Z,54.63
2023-04-09T00:54:25.601Z,45.78
2023-04-09T00:57:08.205Z,45.05
2023-04-09T00:59:50.861Z,40.83
2023-04-09T01:02:33.599Z,47.13
2023-04-09T01:05:16.672Z,43.05
2023-04-09T01:08:02.817Z,37.03
2023-04-09T01:10:49.850Z,39.20
2023-04-09T01:13:36.480Z,63.50
2023-04-09T01:16:20.282Z,42.08
2023-04-09T01:19:09.534Z,43.15
2023-04-09T01:21:53.490Z,44.67
2023-04-09T01:24:42.579Z,37.80
2023-04-09T01:27:30.313Z,57.58
2023-04-09T01:30:18.983Z,58.83
2023-04-09T01:33:02.193Z,43.05
2023-04-09T01:35:45.790Z,49.40
2023-04-09T01:38:28.756Z,50.80
2023-04-09T01:41:13.000Z,54.20
2023-04-09T01:43:56.564Z,49.60
2023-04-09T01:46:41.916Z,52.55
2023-04-09T01:49:24.834Z,52.88
2023-04-09T01:52:07.850Z,43.50
2023-04-09T01:54:50.664Z,43.72
2023-04-09T01:57:33.387Z,52.03
2023-04-09T02:00:16.420Z,47.28
2023-04-09T02:03:06.234Z,46.70
2023-04-09T02:05:52.232Z,49.45
2023-04-09T02:08:35.593Z,49.78
2023-04-09T02:11:19.945Z,49.05
2023-04-09T02:14:02.759Z,54.72
2023-04-09T02:16:46.585Z,45.03
2023-04-09T02:19:40.574Z,51.75
2023-04-09T02:22:23.544Z,43.47
2023-04-09T02:25:06.951Z,47.58
2023-04-09T02:27:49.845Z,41.08
2023-04-09T02:30:32.648Z,43.17
2023-04-09T02:33:15.344Z,47.83
2023-04-09T02:35:59.295Z,46.53
2023-04-09T02:38:42.391Z,41.45
2023-04-09T02:41:25.917Z,44.70
2023-04-09T02:44:08.590Z,44.05
2023-04-09T02:46:52.080Z,42.45
2023-04-09T02:49:35.056Z,43.72
2023-04-09T02:52:20.166Z,47.28
2023-04-09T02:55:03.478Z,52.47
2023-04-09T02:57:46.061Z,42.90
2023-04-09T03:00:28.756Z,45.78
2023-04-09T03:03:12.321Z,47.05
2023-04-09T03:05:55.242Z,45.45
2023-04-09T03:08:39.208Z,43.47
2023-04-09T03:11:21.860Z,52.50
2023-04-09T03:14:04.435Z,47.17
2023-04-09T03:16:47.118Z,43.17
2023-04-09T03:19:29.718Z,45.65
2023-04-09T03:22:12.339Z,48.35
2023-04-09T03:24:57.014Z,43.03
2023-04-09T03:27:39.690Z,45.03
2023-04-09T03:30:22.763Z,40.97
2023-04-09T03:33:05.620Z,47.15
2023-04-09T03:35:52.628Z,43.80
2023-04-09T03:38:44.463Z,46.15
2023-04-09T03:41:40.232Z,44.95
2023-04-09T03:44:27.242Z,42.30
2023-04-09T03:47:22.075Z,44.15
2023-04-09T03:50:05.878Z,48.30
2023-04-09T03:53:00.869Z,44.10
2023-04-09T03:55:43.961Z,46.80
2023-04-09T03:58:35.526Z,46.75
2023-04-09T04:01:18.472Z,43.13
2023-04-09T04:04:10.290Z,46.35
2023-04-09T04:07:03.786Z,40.42
2023-04-09T04:09:52.941Z,40.08
2023-04-09T04:12:35.650Z,36.60
2023-04-09T04:15:27.233Z,38.97
2023-04-09T04:18:11.754Z,57.67
2023-04-09T04:20:59.396Z,62.10
2023-04-09T04:23:42.627Z,47.72
2023-04-09T04:26:38.821Z,44.97
2023-04-09T04:29:21.766Z,41.22
2023-04-09T04:32:17.364Z,36.22
2023-04-09T04:35:00.241Z,42.00
2023-04-09T04:37:42.817Z,36.30
2023-04-09T04:40:25.942Z,41.20
2023-04-09T04:43:14.051Z,48.78
2023-04-09T04:45:57.088Z,50.97
2023-04-09T04:48:43.196Z,37.25
2023-04-09T04:51:27.621Z,45.63
2023-04-09T04:54:18.410Z,50.22
2023-04-09T04:57:05.982Z,38.17
2023-04-09T04:59:53.096Z,33.85
2023-04-09T05:02:35.892Z,46.88
2023-04-09T05:05:47.048Z,39.70
2023-04-09T05:08:30.330Z,34.72
2023-04-09T05:11:15.081Z,46.70
2023-04-09T05:13:58.924Z,45.88
2023-04-09T05:16:41.615Z,37.95
2023-04-09T05:19:24.316Z,32.80
2023-04-09T05:22:14.631Z,39.80
2023-04-09T05:24:57.368Z,46.92
2023-04-09T05:27:40.861Z,33.63
2023-04-09T05:30:26.055Z,33.22
2023-04-09T05:33:09.764Z,46.35
2023-04-09T05:35:52.486Z,50.40
2023-04-09T05:38:36.699Z,39.08
2023-04-09T05:41:19.545Z,45.08
2023-04-09T05:44:34.571Z,45.08
2023-04-09T05:47:22.903Z,44.40
2023-04-09T05:50:28.363Z,42.45
2023-04-09T05:53:11.449Z,43.58
2023-04-09T05:55:58.490Z,38.28
2023-04-09T05:58:44.406Z,35.95
2023-04-09T06:01:27.224Z,37.90
2023-04-09T06:04:10.031Z,41.85
2023-04-09T06:06:52.755Z,39.90
2023-04-09T06:09:36.530Z,32.38
2023-04-09T06:12:20.459Z,38.10
2023-04-09T06:15:03.611Z,39.60
2023-04-09T06:17:46.409Z,38.00
2023-04-09T06:20:29.108Z,43.63
2023-04-09T06:23:11.812Z,39.15
2023-04-09T06:25:54.472Z,40.55
2023-04-09T06:28:38.518Z,38.47
2023-04-09T06:31:21.795Z,43.05
2023-04-09T06:34:04.433Z,37.20
2023-04-09T06:36:47.071Z,42.58
2023-04-09T06:39:29.663Z,41.35
2023-04-09T06:42:12.303Z,33.88
2023-04-09T06:45:09.629Z,38.03
2023-04-09T06:47:52.499Z,44.53
2023-04-09T06:50:35.136Z,42.05
2023-04-09T06:53:18.134Z,33.45
2023-04-09T06:56:00.923Z,32.33
2023-04-09T06:58:43.540Z,37.78
2023-04-09T07:01:28.013Z,38.80
2023-04-09T07:04:10.755Z,43.35
2023-04-09T07:06:54.812Z,43.85
2023-04-09T07:09:37.508Z,37.65
2023-04-09T07:12:27.153Z,44.88
2023-04-09T07:15:09.979Z,40.10
2023-04-09T07:17:53.938Z,38.20
2023-04-09T07:20:36.577Z,38.15
2023-04-09T07:23:19.212Z,44.63
2023-04-09T07:26:03.233Z,40.08
2023-04-09T07:28:45.862Z,35.15
2023-04-09T07:31:29.068Z,36.65
2023-04-09T07:34:13.066Z,42.28
2023-04-09T07:36:55.690Z,35.92
2023-04-09T07:39:38.374Z,32.65
2023-04-09T07:42:21.332Z,39.28
2023-04-09T07:45:03.914Z,36.10
2023-04-09T07:47:46.571Z,36.30
2023-04-09T07:50:30.825Z,34.90
2023-04-09T07:53:13.508Z,32.05
2023-04-09T07:55:56.419Z,37.33
2023-04-09T07:58:39.089Z,37.83
2023-04-09T08:01:24.636Z,39.72
2023-04-09T08:04:07.535Z,34.65
2023-04-09T08:06:51.820Z,34.00
2023-04-09T08:09:34.431Z,32.58
2023-04-09T08:12:17.130Z,33.17
2023-04-09T08:14:59.966Z,34.88
2023-04-09T08:17:42.609Z,35.65
2023-04-09T08:20:25.379Z,40.05
2023-04-09T08:23:09.478Z,36.50
2023-04-09T08:25:52.116Z,36.08
2023-04-09T08:28:34.714Z,37.83
2023-04-09T08:31:17.369Z,37.75
2023-04-09T08:34:00.153Z,33.92
2023-04-09T08:36:46.702Z,33.10
2023-04-09T08:39:30.774Z,27.77
2023-04-09T08:42:14.859Z,34.70
2023-04-09T08:44:57.471Z,32.95
2023-04-09T08:47:42.118Z,34.22
2023-04-09T08:50:24.832Z,31.77
2023-04-09T08:53:09.161Z,32.05
2023-04-09T08:55:53.426Z,30.77
2023-04-09T08:58:36.409Z,31.88
2023-04-09T09:01:19.957Z,28.90
2023-04-09T09:04:04.276Z,32.17
2023-04-09T09:06:47.151Z,33.75
2023-04-09T09:09:29.945Z,29.95
2023-04-09T09:12:30.340Z,32.75
2023-04-09T09:15:26.795Z,28.40
2023-04-09T09:18:09.460Z,29.55
2023-04-09T09:20:52.126Z,33.13
2023-04-09T09:23:35.596Z,30.90
2023-04-09T09:26:19.302Z,32.60
2023-04-09T09:29:05.735Z,34.72
2023-04-09T09:31:49.523Z,33.03
2023-04-09T09:34:32.247Z,29.10
2023-04-09T09:37:27.259Z,30.92
2023-04-09T09:40:10.689Z,35.47
2023-04-09T09:42:55.713Z,34.22
2023-04-09T09:45:39.729Z,35.97
2023-04-09T09:48:22.437Z,34.47
2023-04-09T09:51:08.886Z,34.58
2023-04-09T09:53:52.895Z,32.42
2023-04-09T09:56:37.024Z,32.53
2023-04-09T09:59:22.346Z,33.70
2023-04-09T10:02:07.448Z,32.45
2023-04-09T10:04:51.125Z,32.53
2023-04-09T10:07:34.006Z,29.60
2023-04-09T10:10:16.726Z,32.40
2023-04-09T10:12:59.747Z,32.97
2023-04-09T10:15:43.153Z,33.85
2023-04-09T10:18:27.425Z,35.22
2023-04-09T10:21:13.615Z,31.25
2023-04-09T10:23:56.637Z,32.97
2023-04-09T10:26:41.712Z,32.70
2023-04-09T10:29:28.628Z,31.98
2023-04-09T10:32:11.633Z,32.17
2023-04-09T10:34:57.543Z,31.85
2023-04-09T10:37:49.867Z,34.83
2023-04-09T10:40:32.799Z,33.00
2023-04-09T10:43:19.718Z,32.28
2023-04-09T10:46:02.473Z,32.30
2023-04-09T10:48:45.477Z,33.75
2023-04-09T10:51:29.448Z,32.90
2023-04-09T10:54:27.298Z,34.70
2023-04-09T10:57:14.625Z,33.13
2023-04-09T10:59:57.304Z,32.95
2023-04-09T11:02:54.834Z,32.33
2023-04-09T11:05:39.123Z,33.30
2023-04-09T11:08:23.151Z,31.63
2023-04-09T11:11:06.011Z,32.67
2023-04-09T11:13:48.712Z,31.05
2023-04-09T11:16:32.569Z,31.30
2023-04-09T11:19:15.506Z,37.08
2023-04-09T11:21:58.164Z,34.38
2023-04-09T11:24:46.574Z,36.80
2023-04-09T11:27:29.390Z,34.25
2023-04-09T11:30:12.271Z,34.55
2023-04-09T11:32:55.076Z,33.53
2023-04-09T11:35:37.817Z,34.78
2023-04-09T11:38:20.851Z,30.90
2023-04-09T11:41:04.872Z,34.75
2023-04-09T11:43:47.512Z,32.38
2023-04-09T11:46:30.708Z,35.20
2023-04-09T11:49:13.829Z,28.08
2023-04-09T11:51:58.367Z,31.08
2023-04-09T11:54:41.035Z,32.10
2023-04-09T11:57:25.018Z,36.25
2023-04-09T12:00:09.486Z,36.00
2023-04-09T12:02:52.935Z,33.67
2023-04-09T12:05:35.895Z,32.60
2023-04-09T12:08:23.514Z,30.85
2023-04-09T12:11:10.034Z,33.83
2023-04-09T12:14:01.243Z,33.47
2023-04-09T12:16:44.840Z,33.38
2023-04-09T12:19:27.990Z,31.10
2023-04-09T12:22:10.700Z,31.00
2023-04-09T12:24:53.302Z,30.35
2023-04-09T12:27:36.217Z,32.55
2023-04-09T12:30:20.154Z,30.42
2023-04-09T12:33:02.907Z,31.80
2023-04-09T12:35:45.589Z,34.10
2023-04-09T12:38:28.558Z,29.85
2023-04-09T12:41:11.246Z,34.45
2023-04-09T12:43:54.192Z,30.20
2023-04-09T12:46:38.226Z,27.00
2023-04-09T12:49:21.616Z,28.88
2023-04-09T12:52:04.264Z,30.33
2023-04-09T12:54:48.000Z,28.63
2023-04-09T12:57:31.503Z,30.90
2023-04-09T13:00:14.575Z,32.22
2023-04-09T13:02:58.679Z,29.77
2023-04-09T13:05:41.861Z,29.27
2023-04-09T13:08:24.451Z,31.70
2023-04-09T13:11:07.214Z,23.27
2023-04-09T13:13:49.816Z,26.35
2023-04-09T13:16:32.856Z,28.65
2023-04-09T13:19:16.816Z,27.30
2023-04-09T13:21:59.485Z,27.10
2023-04-09T13:24:43.149Z,30.05
2023-04-09T13:27:26.087Z,31.25
2023-04-09T13:30:09.611Z,28.63
2023-04-09T13:32:52.264Z,30.77
2023-04-09T13:35:36.348Z,32.30
2023-04-09T13:38:19.233Z,31.98
2023-04-09T13:41:01.824Z,27.73
2023-04-09T13:43:45.158Z,29.77
2023-04-09T13:46:27.878Z,31.08
2023-04-09T13:49:10.570Z,32.85
2023-04-09T13:51:55.718Z,28.38
2023-04-09T13:54:38.521Z,28.05
2023-04-09T13:57:21.307Z,30.63
2023-04-09T14:00:05.712Z,26.67
2023-04-09T14:02:49.004Z,30.83
2023-04-09T14:05:32.328Z,28.92
2023-04-09T14:08:16.437Z,26.13
2023-04-09T14:10:59.173Z,29.02
2023-04-09T14:13:41.821Z,26.73
2023-04-09T14:16:24.539Z,28.38
2023-04-09T14:19:07.344Z,29.33
2023-04-09T14:21:53.147Z,28.35
2023-04-09T14:24:40.024Z,24.73
2023-04-09T14:27:23.717Z,31.58
2023-04-09T14:30:07.765Z,29.33
2023-04-09T14:32:50.684Z,26.17
2023-04-09T14:35:33.417Z,24.13
2023-04-09T14:38:16.497Z,23.40
2023-04-09T14:41:00.836Z,23.60
2023-04-09T14:43:43.533Z,25.65
2023-04-09T14:46:26.208Z,22.08
2023-04-09T14:49:09.053Z,27.58
2023-04-09T14:51:51.983Z,24.98
2023-04-09T14:54:34.838Z,26.55
2023-04-09T14:57:18.835Z,28.25
2023-04-09T15:00:01.886Z,26.30
2023-04-09T15:02:44.756Z,25.25
2023-04-09T15:05:27.630Z,28.13
2023-04-09T15:08:10.348Z,29.02
2023-04-09T15:10:53.023Z,25.27
2023-04-09T15:13:37.059Z,27.05
2023-04-09T15:16:22.932Z,24.38
2023-04-09T15:19:05.660Z,25.63
2023-04-09T15:21:48.298Z,24.70
2023-04-09T15:24:30.941Z,23.90
2023-04-09T15:27:13.641Z,24.33
2023-04-09T15:29:57.711Z,24.70
2023-04-09T15:32:40.411Z,27.08
2023-04-09T15:35:26.510Z,22.98
2023-04-09T15:38:09.259Z,29.20
2023-04-09T15:40:51.911Z,24.45
2023-04-09T15:43:34.521Z,27.60
2023-04-09T15:46:18.662Z,26.60
2023-04-09T15:49:01.485Z,31.35
2023-04-09T15:51:44.238Z,24.90
2023-04-09T15:54:27.201Z,28.70
2023-04-09T15:57:09.895Z,28.20
2023-04-09T15:59:53.334Z,26.02
2023-04-09T16:02:38.696Z,24.92
2023-04-09T16:05:21.486Z,24.42
2023-04-09T16:08:04.254Z,25.88
2023-04-09T16:10:46.933Z,24.77
2023-04-09T16:13:29.659Z,24.08
2023-04-09T16:16:12.422Z,25.70
2023-04-09T16:18:56.757Z,25.48
2023-04-09T16:21:43.701Z,24.15
2023-04-09T16:24:27.112Z,27.77
2023-04-09T16:27:10.044Z,24.88
2023-04-09T16:29:53.154Z,25.33
2023-04-09T16:32:35.859Z,23.63
2023-04-09T16:35:20.000Z,24.77
2023-04-09T16:38:02.663Z,29.70
2023-04-09T16:40:45.543Z,26.33
2023-04-09T16:43:28.230Z,29.60
2023-04-09T16:46:10.913Z,27.13
2023-04-09T16:48:53.809Z,29.58
2023-04-09T16:51:38.041Z,26.15
2023-04-09T16:54:20.830Z,34.28
2023-04-09T16:57:03.462Z,28.30
2023-04-09T16:59:46.124Z,26.58
2023-04-09T17:02:28.795Z,27.25
2023-04-09T17:05:11.467Z,26.20
2023-04-09T17:07:55.451Z,27.05
2023-04-09T17:10:38.078Z,27.02
2023-04-09T17:13:20.686Z,29.13
2023-04-09T17:16:03.789Z,38.25
2023-04-09T17:18:47.072Z,31.65
2023-04-09T17:21:29.701Z,25.98
2023-04-09T17:24:13.746Z,27.00
2023-04-09T17:26:56.642Z,32.83
2023-04-09T17:29:39.322Z,28.90
2023-04-09T17:32:22.000Z,28.02
2023-04-09T17:35:06.982Z,34.03
2023-04-09T17:37:49.815Z,34.42
2023-04-09T17:40:33.804Z,29.98
2023-04-09T17:43:17.608Z,32.05
2023-04-09T17:46:00.683Z,42.55
2023-04-09T17:48:43.326Z,61.85
2023-04-09T17:51:26.952Z,26.38
2023-04-09T17:54:09.742Z,29.55
2023-04-09T17:56:53.776Z,35.10
2023-04-09T17:59:36.758Z,29.02
2023-04-09T18:02:19.625Z,30.17
2023-04-09T18:05:02.762Z,27.25
2023-04-09T18:07:45.803Z,35.63
2023-04-09T18:10:28.484Z,28.45
2023-04-09T18:13:12.506Z,30.85
2023-04-09T18:15:55.299Z,37.88
2023-04-09T18:18:37.953Z,42.67
2023-04-09T18:21:20.639Z,22.85
2023-04-09T18:24:03.978Z,21.67
2023-04-09T18:26:46.663Z,28.10
2023-04-09T18:29:30.892Z,28.42
2023-04-09T18:32:13.576Z,28.88
2023-04-09T18:34:56.989Z,29.38
2023-04-09T18:37:39.695Z,31.52
2023-04-09T18:40:22.305Z,31.67
2023-04-09T18:43:05.021Z,32.63
2023-04-09T18:45:49.472Z,29.77
2023-04-09T18:48:32.910Z,28.67
2023-04-09T18:51:15.582Z,37.45
2023-04-09T18:54:00.525Z,29.27
2023-04-09T18:56:45.381Z,32.10
2023-04-09T18:59:29.181Z,28.80
2023-04-09T19:02:13.166Z,38.10
2023-04-09T19:04:55.907Z,41.15
2023-04-09T19:07:39.494Z,23.13
2023-04-09T19:10:22.418Z,23.25
2023-04-09T19:13:05.081Z,27.63
2023-04-09T19:15:47.799Z,32.47
2023-04-09T19:18:33.130Z,37.65
2023-04-09T19:21:16.065Z,27.15
2023-04-09T19:24:00.076Z,29.90
2023-04-09T19:26:42.798Z,25.33
2023-04-09T19:29:25.518Z,28.80
2023-04-09T19:32:09.295Z,28.80
2023-04-09T19:34:53.340Z,29.63
2023-04-09T19:37:36.198Z,26.50
2023-04-09T19:40:18.994Z,30.92
2023-04-09T19:43:01.747Z,29.02
2023-04-09T19:45:44.446Z,24.70
2023-04-09T19:48:27.381Z,31.13
2023-04-09T19:51:16.340Z,27.85
2023-04-09T19:53:59.053Z,27.83
2023-04-09T19:56:42.408Z,28.55
2023-04-09T19:59:25.059Z,26.85
2023-04-09T20:02:08.121Z,27.77
2023-04-09T20:04:52.286Z,26.58
2023-04-09T20:07:36.391Z,26.35
2023-04-09T20:10:19.701Z,25.50
2023-04-09T20:13:02.699Z,29.13
2023-04-09T20:15:45.405Z,25.10
2023-04-09T20:18:28.613Z,25.58
2023-04-09T20:21:14.196Z,25.83
2023-04-09T20:23:58.259Z,24.42
2023-04-09T20:26:41.230Z,23.67
2023-04-09T20:29:23.888Z,27.10
2023-04-09T20:32:06.656Z,27.65
2023-04-09T20:34:49.573Z,22.77
2023-04-09T20:37:32.240Z,26.00
2023-04-09T20:40:16.368Z,23.17
2023-04-09T20:42:59.293Z,25.75
2023-04-09T20:45:41.943Z,27.15
2023-04-09T20:48:24.641Z,23.35
2023-04-09T20:51:09.306Z,22.58
2023-04-09T20:53:51.986Z,25.38
2023-04-09T20:56:36.020Z,22.42
2023-04-09T20:59:19.300Z,22.65
2023-04-09T21:02:02.070Z,27.17
2023-04-09T21:04:44.843Z,21.42
2023-04-09T21:07:27.484Z,27.40
2023-04-09T21:10:10.374Z,24.73
2023-04-09T21:12:54.391Z,24.02
2023-04-09T21:15:37.057Z,26.23
2023-04-09T21:18:19.714Z,27.67
2023-04-09T21:21:05.690Z,26.55
2023-04-09T21:23:48.335Z,26.05
2023-04-09T21:26:44.906Z,28.50
2023-04-09T21:29:33.816Z,24.50
2023-04-09T21:32:17.464Z,23.17
2023-04-09T21:35:00.130Z,26.45
2023-04-09T21:37:42.808Z,23.23
2023-04-09T21:40:25.445Z,24.95
2023-04-09T21:43:09.085Z,23.67
2023-04-09T21:45:53.078Z,25.05
2023-04-09T21:48:35.837Z,22.55
2023-04-09T21:51:18.478Z,21.65
2023-04-09T21:54:05.110Z,23.70
2023-04-09T21:56:47.718Z,21.13
2023-04-09T21:59:30.403Z,22.02
2023-04-09T22:02:14.461Z,20.95
2023-04-09T22:04:57.256Z,21.38
2023-04-09T22:07:40.496Z,23.80
2023-04-09T22:10:23.356Z,19.65
2023-04-09T22:13:05.984Z,21.95
2023-04-09T22:15:48.648Z,19.90
2023-04-09T22:18:32.645Z,20.52
2023-04-09T22:21:15.756Z,19.45
2023-04-09T22:23:58.400Z,21.50
2023-04-09T22:26:46.400Z,26.45
2023-04-09T22:29:29.347Z,29.73
2023-04-09T22:32:12.002Z,25.40
2023-04-09T22:34:56.016Z,22.30
2023-04-09T22:37:39.798Z,20.13
2023-04-09T22:40:22.411Z,22.02
2023-04-09T22:43:07.640Z,20.83
2023-04-09T22:45:51.811Z,20.55
2023-04-09T22:48:40.709Z,20.15
2023-04-09T22:51:27.989Z,19.65
2023-04-09T22:54:10.787Z,20.67
2023-04-09T22:56:53.448Z,19.70
2023-04-09T23:02:21.784Z,18.27
2023-04-09T23:05:04.768Z,20.30
2023-04-09T23:07:49.286Z,17.45
2023-04-09T23:10:32.413Z,17.95
2023-04-09T23:13:18.065Z,17.77
2023-04-09T23:16:00.898Z,16.02
2023-04-09T23:18:43.607Z,19.23
2023-04-09T23:21:26.777Z,20.73
2023-04-09T23:24:10.716Z,17.73
2023-04-09T23:26:53.364Z,17.27
2023-04-09T23:29:35.953Z,19.67
2023-04-09T23:32:18.638Z,18.92
2023-04-09T23:35:01.591Z,16.83
2023-04-09T23:37:44.519Z,17.80
2023-04-09T23:40:28.509Z,17.75
2023-04-09T23:43:11.166Z,18.73
2023-04-09T23:45:53.778Z,19.17
2023-04-09T23:48:36.435Z,16.98
2023-04-09T23:51:19.291Z,16.63
2023-04-09T23:54:02.796Z,18.88
2023-04-09T23:56:47.057Z,21.15
2023-04-09T23:59:33.778Z,18.92
